首页
METAR-TAF:

METAR-TAF

机场 :

Greenwood, 密西西比州, 美国

纬度: 33-29-33N, 经度: 090-05-01W, 海拔: 47米

当前天气观测

该预报发布于30分钟前的07:53 UTC
静风
温度 15°C
湿度 94%
气压 1016 hPa
能見度: 12.9公里
阴天层高于10000英尺

METAR: KGWO 050753Z AUTO 00000KT 8SM OVC100 15/14 A3000 RMK AO2 SLP156 T01500139

时间: 03:23 (08:23 UTC)

预报

该预报发布于2小时和43分钟前的05:40 UTC
预报有效从05日的 06点(UTC)到 06日的 06点(UTC)
风速4节,风向多变
能見度: 10公里
阴天层高于10000英尺

TAF: KGWO 050540Z 0506/0606 VRB04KT P6SM OVC100

超过4000个机场的气象观测和天气预报(METAR&TAF报告)。

可查询的气象台以黄色和红色小点在地图上表示。

将鼠标移到小点上方,可查看气象台名称。

然后点击查看天气观测和预报。

如需切换地图:点击带黑十字的绿色按钮放大地图;点击带横线的绿色按钮缩小地图;或者点击绿色箭头查看邻近地区的地图。


METAR-TAF: